createdAt,value
2019-06-15T00:00:31.989Z,17.40
2019-06-15T00:03:01.394Z,17.40
2019-06-15T00:05:49.924Z,17.30
2019-06-15T00:08:19.855Z,17.30
2019-06-15T00:10:49.250Z,17.30
2019-06-15T00:13:18.679Z,17.30
2019-06-15T00:15:48.078Z,17.30
2019-06-15T00:18:17.478Z,17.30
2019-06-15T00:20:46.883Z,17.20
2019-06-15T00:23:16.275Z,17.20
2019-06-15T00:25:45.947Z,17.20
2019-06-15T00:28:15.370Z,17.20
2019-06-15T00:30:44.798Z,17.20
2019-06-15T00:33:14.210Z,17.20
2019-06-15T00:35:43.642Z,17.20
2019-06-15T00:38:13.031Z,17.30
2019-06-15T00:40:42.429Z,17.30
2019-06-15T00:43:11.869Z,17.30
2019-06-15T00:45:41.246Z,17.30
2019-06-15T00:48:10.641Z,17.30
2019-06-15T00:50:40.087Z,17.30
2019-06-15T00:53:09.513Z,17.40
2019-06-15T00:55:38.908Z,17.40
2019-06-15T00:58:08.322Z,17.40
2019-06-15T01:00:37.806Z,17.50
2019-06-15T01:03:07.229Z,17.50
2019-06-15T01:05:36.626Z,17.50
2019-06-15T01:08:06.055Z,17.50
2019-06-15T01:10:35.443Z,17.50
2019-06-15T01:13:04.880Z,17.50
2019-06-15T01:15:34.266Z,17.50
2019-06-15T01:18:03.755Z,17.50
2019-06-15T01:20:33.274Z,17.50
2019-06-15T01:23:02.668Z,17.50
2019-06-15T01:25:32.071Z,17.50
2019-06-15T01:28:01.510Z,17.50
2019-06-15T01:30:30.902Z,17.50
2019-06-15T01:33:00.291Z,17.50
2019-06-15T01:35:48.771Z,17.50
2019-06-15T01:38:18.189Z,17.40
2019-06-15T01:40:47.564Z,17.40
2019-06-15T01:43:16.982Z,17.40
2019-06-15T01:45:46.383Z,17.30
2019-06-15T01:48:15.783Z,17.30
2019-06-15T01:50:45.271Z,17.30
2019-06-15T01:53:14.680Z,17.30
2019-06-15T01:55:44.059Z,17.30
2019-06-15T01:58:13.475Z,17.30
2019-06-15T02:00:42.920Z,17.30
2019-06-15T02:03:12.378Z,17.30
2019-06-15T02:05:41.779Z,17.30
2019-06-15T02:08:11.178Z,17.30
2019-06-15T02:10:40.555Z,17.30
2019-06-15T02:13:09.974Z,17.30
2019-06-15T02:15:40.254Z,17.30
2019-06-15T02:18:09.663Z,17.20
2019-06-15T02:20:39.078Z,17.20
2019-06-15T02:23:08.478Z,17.20
2019-06-15T02:25:37.882Z,17.20
2019-06-15T02:28:07.314Z,17.20
2019-06-15T02:30:36.702Z,17.20
2019-06-15T02:33:06.147Z,17.20
2019-06-15T02:35:35.575Z,17.20
2019-06-15T02:38:05.078Z,17.20
2019-06-15T02:40:34.470Z,17.30
2019-06-15T02:43:03.951Z,17.20
2019-06-15T02:45:33.357Z,17.30
2019-06-15T02:48:02.743Z,17.30
2019-06-15T02:50:33.244Z,17.30
2019-06-15T02:53:02.640Z,17.40
2019-06-15T02:55:32.022Z,17.40
2019-06-15T02:58:01.472Z,17.40
2019-06-15T03:00:56.058Z,17.40
2019-06-15T03:03:25.483Z,17.40
2019-06-15T03:05:55.883Z,17.40
2019-06-15T03:08:25.323Z,17.30
2019-06-15T03:10:54.730Z,17.30
2019-06-15T03:13:24.216Z,17.30
2019-06-15T03:15:53.598Z,17.30
2019-06-15T03:18:22.980Z,17.30
2019-06-15T03:20:53.726Z,17.30
2019-06-15T03:23:23.138Z,17.30
2019-06-15T03:26:04.728Z,17.20
2019-06-15T03:28:23.619Z,17.20
2019-06-15T03:30:53.043Z,17.30
2019-06-15T03:33:22.431Z,17.30
2019-06-15T03:35:51.834Z,17.30
2019-06-15T03:38:21.246Z,17.30
2019-06-15T03:40:50.635Z,17.30
2019-06-15T03:43:20.027Z,17.30
2019-06-15T03:45:49.678Z,17.30
2019-06-15T03:48:19.084Z,17.40
2019-06-15T03:50:48.579Z,17.40
2019-06-15T03:53:17.967Z,17.40
2019-06-15T03:55:47.367Z,17.40
2019-06-15T03:58:16.788Z,17.50
2019-06-15T04:01:09.243Z,17.50
2019-06-15T04:03:38.666Z,17.50
2019-06-15T04:06:08.061Z,17.50
2019-06-15T04:08:37.439Z,17.60
2019-06-15T04:11:06.846Z,17.60
2019-06-15T04:13:38.683Z,17.60
2019-06-15T04:16:08.095Z,17.60
2019-06-15T04:18:37.499Z,17.60
2019-06-15T04:21:06.887Z,17.70
2019-06-15T04:23:36.275Z,17.70
2019-06-15T04:26:05.741Z,17.70
2019-06-15T04:28:35.126Z,17.80
2019-06-15T04:31:04.520Z,17.80
2019-06-15T04:33:33.895Z,17.80
2019-06-15T04:36:03.351Z,17.80
2019-06-15T04:38:32.770Z,17.90
2019-06-15T04:41:02.164Z,17.90
2019-06-15T04:43:31.567Z,18.00
2019-06-15T04:46:00.958Z,18.00
2019-06-15T04:48:30.385Z,18.10
2019-06-15T04:50:59.767Z,18.20
2019-06-15T04:53:29.198Z,18.30
2019-06-15T04:55:58.699Z,18.30
2019-06-15T04:58:30.209Z,18.40
2019-06-15T05:00:59.652Z,18.50
2019-06-15T05:03:29.062Z,18.60
2019-06-15T05:05:58.479Z,18.60
2019-06-15T05:08:27.914Z,18.70
2019-06-15T05:10:59.923Z,18.80
2019-06-15T05:13:28.415Z,18.80
2019-06-15T05:15:57.862Z,18.90
2019-06-15T05:18:27.296Z,18.90
2019-06-15T05:20:56.670Z,19.00
2019-06-15T05:23:26.088Z,19.10
2019-06-15T05:25:55.484Z,19.20
2019-06-15T05:28:24.928Z,19.30
2019-06-15T05:30:54.365Z,19.40
2019-06-15T05:33:23.755Z,19.50
2019-06-15T05:35:53.154Z,19.60
2019-06-15T05:38:22.586Z,19.70
2019-06-15T05:40:51.994Z,19.80
2019-06-15T05:43:21.387Z,20.00
2019-06-15T05:45:50.809Z,20.10
2019-06-15T05:48:20.207Z,20.30
2019-06-15T05:50:49.641Z,20.50
2019-06-15T05:53:19.048Z,20.70
2019-06-15T05:55:48.391Z,20.80
2019-06-15T05:58:17.831Z,20.90
2019-06-15T06:00:47.255Z,21.00
2019-06-15T06:03:16.638Z,21.10
2019-06-15T06:05:45.950Z,21.20
2019-06-15T06:08:15.365Z,21.20
2019-06-15T06:10:44.803Z,21.30
2019-06-15T06:13:14.167Z,21.30
2019-06-15T06:15:43.574Z,21.30
2019-06-15T06:18:13.028Z,21.30
2019-06-15T06:20:42.437Z,21.30
2019-06-15T06:23:11.905Z,21.30
2019-06-15T06:25:41.307Z,21.30
2019-06-15T06:28:10.711Z,21.40
2019-06-15T06:30:40.112Z,21.50
2019-06-15T06:33:09.549Z,21.60
2019-06-15T06:35:38.953Z,21.80
2019-06-15T06:38:08.346Z,21.90
2019-06-15T06:40:37.792Z,22.10
2019-06-15T06:43:07.206Z,22.20
2019-06-15T06:45:36.665Z,22.30
2019-06-15T06:48:06.115Z,22.40
2019-06-15T06:50:35.519Z,22.50
2019-06-15T06:53:04.962Z,22.60
2019-06-15T06:55:34.374Z,22.60
2019-06-15T06:58:03.781Z,22.70
2019-06-15T07:00:33.179Z,22.60
2019-06-15T07:03:02.650Z,22.70
2019-06-15T07:05:32.046Z,22.70
2019-06-15T07:08:01.451Z,22.70
2019-06-15T07:10:30.860Z,22.70
2019-06-15T07:13:00.258Z,22.70
2019-06-15T07:15:29.774Z,22.80
2019-06-15T07:17:59.218Z,22.90
2019-06-15T07:20:28.631Z,23.00
2019-06-15T07:22:58.090Z,23.10
2019-06-15T07:25:27.529Z,23.30
2019-06-15T07:28:07.707Z,23.40
2019-06-15T07:30:28.065Z,23.50
2019-06-15T07:32:57.512Z,23.60
2019-06-15T07:35:27.129Z,23.70
2019-06-15T07:37:56.511Z,23.90
2019-06-15T07:40:25.907Z,24.00
2019-06-15T07:42:55.340Z,24.20
2019-06-15T07:45:24.751Z,24.30
2019-06-15T07:47:54.177Z,24.40
2019-06-15T07:50:23.559Z,24.50
2019-06-15T07:52:52.946Z,24.60
2019-06-15T07:55:22.727Z,24.60
2019-06-15T07:57:52.370Z,24.60
2019-06-15T08:00:23.353Z,24.60
2019-06-15T08:02:52.934Z,24.60
2019-06-15T08:05:22.522Z,24.50
2019-06-15T08:07:51.979Z,24.50
2019-06-15T08:10:21.435Z,24.50
2019-06-15T08:12:50.841Z,24.50
2019-06-15T08:15:20.244Z,24.50
2019-06-15T08:17:49.673Z,24.40
2019-06-15T08:20:22.430Z,24.40
2019-06-15T08:22:51.864Z,24.40
2019-06-15T08:25:21.267Z,24.40
2019-06-15T08:27:50.663Z,24.40
2019-06-15T08:30:24.570Z,24.30
2019-06-15T08:32:53.961Z,24.20
2019-06-15T08:35:23.435Z,24.20
2019-06-15T08:37:52.903Z,24.20
2019-06-15T08:40:22.307Z,24.10
2019-06-15T08:42:51.700Z,24.00
2019-06-15T08:45:21.179Z,23.90
2019-06-15T08:47:50.579Z,23.90
2019-06-15T08:50:20.083Z,23.80
2019-06-15T08:52:49.482Z,23.70
2019-06-15T08:55:19.023Z,23.60
2019-06-15T08:57:48.506Z,23.60
2019-06-15T09:00:19.500Z,23.50
2019-06-15T09:02:49.103Z,23.60
2019-06-15T09:05:18.535Z,23.60
2019-06-15T09:07:47.938Z,23.70
2019-06-15T09:10:18.148Z,23.80
2019-06-15T09:12:47.565Z,24.10
2019-06-15T09:15:26.757Z,24.30
2019-06-15T09:17:56.186Z,24.60
2019-06-15T09:20:25.643Z,24.70
2019-06-15T09:22:56.311Z,24.90
2019-06-15T09:25:25.740Z,25.00
2019-06-15T09:27:55.134Z,25.00
2019-06-15T09:30:24.584Z,25.10
2019-06-15T09:32:53.968Z,25.20
2019-06-15T09:35:23.340Z,25.20
2019-06-15T09:37:52.770Z,25.20
2019-06-15T09:40:22.145Z,25.20
2019-06-15T09:42:51.551Z,25.30
2019-06-15T09:45:20.948Z,25.40
2019-06-15T09:47:50.354Z,25.40
2019-06-15T09:50:19.786Z,25.40
2019-06-15T09:52:49.330Z,25.30
2019-06-15T09:55:18.695Z,25.30
2019-06-15T09:57:48.150Z,25.30
2019-06-15T10:00:18.147Z,25.20
2019-06-15T10:02:47.538Z,25.20
2019-06-15T10:05:17.527Z,25.00
2019-06-15T10:07:46.927Z,24.90
2019-06-15T10:10:17.618Z,24.80
2019-06-15T10:12:47.066Z,24.70
2019-06-15T10:15:16.850Z,24.70
2019-06-15T10:17:46.264Z,24.50
2019-06-15T10:20:15.855Z,24.40
2019-06-15T10:22:45.251Z,24.20
2019-06-15T10:25:14.746Z,24.10
2019-06-15T10:27:44.211Z,24.00
2019-06-15T10:30:13.702Z,23.90
2019-06-15T10:32:43.096Z,23.70
2019-06-15T10:35:14.811Z,23.70
2019-06-15T10:37:44.157Z,23.50
2019-06-15T10:40:13.774Z,23.40
2019-06-15T10:42:43.217Z,23.20
2019-06-15T10:45:12.637Z,23.00
2019-06-15T10:47:42.055Z,22.80
2019-06-15T10:50:12.267Z,22.60
2019-06-15T10:52:41.677Z,22.50
2019-06-15T10:55:11.191Z,22.40
2019-06-15T10:57:40.621Z,22.30
2019-06-15T11:00:10.538Z,22.10
2019-06-15T11:02:40.048Z,22.00
2019-06-15T11:05:09.687Z,21.90
2019-06-15T11:07:39.099Z,21.80
2019-06-15T11:10:10.285Z,21.70
2019-06-15T11:12:46.215Z,21.60
2019-06-15T11:15:11.089Z,21.50
2019-06-15T11:17:40.580Z,21.40
2019-06-15T11:20:10.251Z,21.30
2019-06-15T11:22:39.634Z,21.20
2019-06-15T11:25:09.096Z,21.00
2019-06-15T11:27:38.510Z,20.90
2019-06-15T11:30:13.749Z,20.80
2019-06-15T11:32:39.281Z,20.60
2019-06-15T11:35:08.775Z,20.50
2019-06-15T11:37:38.817Z,20.40
2019-06-15T11:40:08.518Z,20.30
2019-06-15T11:42:37.960Z,20.10
2019-06-15T11:45:07.600Z,20.00
2019-06-15T11:47:37.122Z,19.80
2019-06-15T11:50:06.540Z,19.60
2019-06-15T11:52:37.259Z,19.40
2019-06-15T11:55:07.284Z,19.30
2019-06-15T11:57:36.696Z,19.10
2019-06-15T12:00:06.958Z,19.00
2019-06-15T12:02:36.352Z,18.90
2019-06-15T12:05:05.796Z,18.70
2019-06-15T12:07:35.210Z,18.60
2019-06-15T12:10:04.911Z,18.50
2019-06-15T12:12:34.322Z,18.40
2019-06-15T12:15:03.767Z,18.30
2019-06-15T12:17:33.174Z,18.10
2019-06-15T12:20:02.645Z,18.00
2019-06-15T12:22:32.085Z,17.80
2019-06-15T12:25:01.517Z,17.70
2019-06-15T12:27:30.913Z,17.60
2019-06-15T12:30:00.362Z,17.50
2019-06-15T12:32:29.747Z,17.30
2019-06-15T12:34:59.147Z,17.30
2019-06-15T12:37:28.558Z,17.20
2019-06-15T12:39:57.960Z,17.20
2019-06-15T12:42:27.363Z,17.10
2019-06-15T12:44:56.763Z,17.00
2019-06-15T12:47:26.182Z,16.90
2019-06-15T12:49:55.579Z,16.80
2019-06-15T12:52:25.494Z,16.70
2019-06-15T12:54:54.979Z,16.60
2019-06-15T12:57:24.351Z,16.60
2019-06-15T12:59:53.739Z,16.50
2019-06-15T13:02:23.187Z,16.50
2019-06-15T13:04:52.570Z,16.50
2019-06-15T13:07:21.987Z,16.40
2019-06-15T13:09:51.371Z,16.40
2019-06-15T13:12:20.798Z,16.40
2019-06-15T13:14:50.281Z,16.40
2019-06-15T13:17:19.734Z,16.40
2019-06-15T13:19:49.095Z,16.30
2019-06-15T13:22:18.486Z,16.30
2019-06-15T13:24:47.883Z,16.30
2019-06-15T13:27:17.290Z,16.30
2019-06-15T13:29:46.605Z,16.30
2019-06-15T13:32:16.022Z,16.30
2019-06-15T13:34:45.466Z,16.40
2019-06-15T13:37:14.868Z,16.40
2019-06-15T13:39:44.247Z,16.30
2019-06-15T13:42:13.689Z,16.30
2019-06-15T13:44:43.132Z,16.30
2019-06-15T13:47:12.549Z,16.30
2019-06-15T13:49:41.920Z,16.30
2019-06-15T13:52:11.414Z,16.20
2019-06-15T13:54:40.868Z,16.20
2019-06-15T13:57:10.291Z,16.10
2019-06-15T13:59:39.686Z,16.10
2019-06-15T14:02:09.091Z,15.90
2019-06-15T14:04:38.472Z,15.90
2019-06-15T14:07:07.903Z,15.80
2019-06-15T14:09:37.291Z,15.80
2019-06-15T14:12:06.682Z,15.70
2019-06-15T14:14:36.029Z,15.60
2019-06-15T14:17:05.435Z,15.50
2019-06-15T14:19:34.809Z,15.40
2019-06-15T14:22:04.209Z,15.40
2019-06-15T14:24:33.650Z,15.40
2019-06-15T14:27:03.051Z,15.40
2019-06-15T14:29:32.440Z,15.40
2019-06-15T14:32:02.285Z,15.40
2019-06-15T14:34:31.672Z,15.40
2019-06-15T14:37:01.059Z,15.40
2019-06-15T14:39:30.473Z,15.40
2019-06-15T14:41:59.865Z,15.50
2019-06-15T14:44:29.282Z,15.50
2019-06-15T14:46:58.712Z,15.60
2019-06-15T14:49:28.131Z,15.70
2019-06-15T14:51:57.716Z,15.70
2019-06-15T14:54:27.139Z,15.90
2019-06-15T14:56:56.729Z,16.00
2019-06-15T14:59:26.551Z,16.10
2019-06-15T15:02:09.100Z,16.10
2019-06-15T15:04:27.260Z,16.20
2019-06-15T15:06:56.662Z,16.40
2019-06-15T15:09:26.089Z,16.40
2019-06-15T15:11:55.982Z,16.60
2019-06-15T15:14:26.035Z,16.60
2019-06-15T15:16:56.968Z,16.80
2019-06-15T15:19:27.289Z,16.90
2019-06-15T15:21:56.819Z,17.00
2019-06-15T15:24:27.506Z,17.20
2019-06-15T15:26:56.979Z,17.30
2019-06-15T15:29:27.060Z,17.60
2019-06-15T15:31:57.587Z,17.80
2019-06-15T15:34:27.283Z,18.10
2019-06-15T15:36:56.904Z,18.20
2019-06-15T15:39:27.388Z,18.20
2019-06-15T15:41:56.991Z,18.30
2019-06-15T15:44:26.988Z,18.30
2019-06-15T15:46:57.075Z,18.30
2019-06-15T15:49:26.962Z,18.30
2019-06-15T15:51:56.691Z,18.30
2019-06-15T15:54:26.374Z,18.20
2019-06-15T15:56:58.059Z,18.10
2019-06-15T15:59:27.515Z,18.00
2019-06-15T16:01:56.924Z,17.80
2019-06-15T16:04:26.363Z,17.80
2019-06-15T16:06:56.246Z,17.90
2019-06-15T16:09:27.239Z,17.90
2019-06-15T16:11:56.982Z,18.00
2019-06-15T16:14:26.692Z,18.10
2019-06-15T16:16:58.345Z,18.30
2019-06-15T16:19:27.746Z,18.50
2019-06-15T16:21:57.222Z,18.60
2019-06-15T16:24:27.280Z,18.70
2019-06-15T16:26:57.102Z,18.70
2019-06-15T16:29:26.512Z,18.50
2019-06-15T16:31:56.417Z,18.30
2019-06-15T16:34:26.949Z,17.90
2019-06-15T16:36:57.107Z,17.50
2019-06-15T16:39:26.981Z,17.20
2019-06-15T16:41:56.568Z,17.00
2019-06-15T16:44:25.976Z,16.90
2019-06-15T16:47:02.655Z,16.90
2019-06-15T16:49:32.052Z,16.90
2019-06-15T16:52:01.467Z,16.80
2019-06-15T16:54:30.956Z,16.80
2019-06-15T16:57:00.359Z,16.80
2019-06-15T16:59:29.755Z,16.80
2019-06-15T17:01:59.270Z,16.90
2019-06-15T17:04:28.674Z,16.90
2019-06-15T17:06:58.077Z,17.00
2019-06-15T17:09:27.721Z,17.10
2019-06-15T17:11:57.411Z,17.10
2019-06-15T17:14:27.215Z,17.20
2019-06-15T17:16:57.032Z,17.20
2019-06-15T17:19:29.097Z,17.20
2019-06-15T17:22:13.795Z,17.10
2019-06-15T17:24:29.564Z,17.10
2019-06-15T17:26:58.973Z,17.10
2019-06-15T17:29:28.381Z,17.00
2019-06-15T17:31:57.748Z,17.00
2019-06-15T17:34:27.153Z,17.00
2019-06-15T17:36:57.442Z,17.00
2019-06-15T17:39:29.643Z,16.90
2019-06-15T17:41:58.188Z,16.90
2019-06-15T17:44:27.590Z,16.80
2019-06-15T17:46:57.010Z,16.80
2019-06-15T17:49:27.135Z,16.80
2019-06-15T17:51:56.810Z,16.80
2019-06-15T17:54:27.318Z,16.80
2019-06-15T17:56:56.920Z,16.80
2019-06-15T17:59:26.759Z,16.80
2019-06-15T18:01:56.319Z,16.80
2019-06-15T18:04:25.702Z,16.80
2019-06-15T18:06:56.779Z,16.70
2019-06-15T18:09:26.223Z,16.70
2019-06-15T18:11:57.089Z,16.70
2019-06-15T18:14:26.846Z,16.60
2019-06-15T18:16:58.274Z,16.60
2019-06-15T18:19:27.318Z,16.60
2019-06-15T18:21:56.713Z,16.60
2019-06-15T18:24:26.637Z,16.50
2019-06-15T18:26:56.495Z,16.50
2019-06-15T18:29:26.449Z,16.60
2019-06-15T18:31:56.721Z,16.60
2019-06-15T18:34:26.234Z,16.60
2019-06-15T18:36:56.194Z,16.60
2019-06-15T18:39:26.404Z,16.70
2019-06-15T18:41:56.111Z,16.70
2019-06-15T18:44:26.929Z,16.70
2019-06-15T18:46:56.738Z,16.80
2019-06-15T18:49:26.764Z,16.80
2019-06-15T18:51:56.812Z,16.80
2019-06-15T18:54:26.670Z,16.80
2019-06-15T18:56:56.601Z,16.80
2019-06-15T18:59:26.410Z,16.80
2019-06-15T19:01:56.197Z,16.90
2019-06-15T19:04:30.709Z,16.90
2019-06-15T19:06:56.894Z,16.90
2019-06-15T19:09:26.711Z,16.70
2019-06-15T19:11:56.726Z,16.60
2019-06-15T19:14:27.097Z,16.50
2019-06-15T19:16:56.933Z,16.40
2019-06-15T19:19:26.616Z,16.40
2019-06-15T19:21:57.202Z,16.30
2019-06-15T19:24:26.705Z,16.30
2019-06-15T19:26:58.321Z,16.30
2019-06-15T19:29:27.161Z,16.30
2019-06-15T19:31:57.207Z,16.30
2019-06-15T19:34:41.036Z,16.20
2019-06-15T19:36:57.830Z,16.20
2019-06-15T19:39:27.243Z,16.20
2019-06-15T19:41:57.522Z,16.20
2019-06-15T19:44:26.941Z,16.20
2019-06-15T19:46:56.887Z,16.10
2019-06-15T19:49:27.566Z,16.10
2019-06-15T19:51:57.023Z,16.10
2019-06-15T19:54:26.483Z,16.10
2019-06-15T19:56:56.465Z,16.00
2019-06-15T19:59:26.399Z,16.10
2019-06-15T20:01:56.084Z,16.00
2019-06-15T20:04:26.997Z,16.00
2019-06-15T20:06:56.866Z,16.00
2019-06-15T20:09:26.475Z,16.00
2019-06-15T20:11:56.062Z,16.00
2019-06-15T20:14:25.664Z,16.00
2019-06-15T20:16:56.126Z,16.00
2019-06-15T20:19:26.657Z,16.00
2019-06-15T20:21:57.899Z,16.00
2019-06-15T20:24:27.857Z,16.00
2019-06-15T20:26:58.547Z,16.00
2019-06-15T20:29:28.250Z,16.00
2019-06-15T20:31:57.644Z,16.00
2019-06-15T20:34:27.046Z,16.00
2019-06-15T20:36:56.479Z,16.10
2019-06-15T20:39:26.676Z,16.00
2019-06-15T20:41:56.466Z,16.10
2019-06-15T20:44:26.128Z,16.10
2019-06-15T20:46:57.097Z,16.10
2019-06-15T20:49:26.650Z,16.10
2019-06-15T20:51:56.225Z,16.10
2019-06-15T20:54:25.603Z,16.10
2019-06-15T20:56:56.961Z,16.10
2019-06-15T20:59:26.216Z,16.10
2019-06-15T21:01:56.278Z,16.00
2019-06-15T21:04:26.715Z,16.00
2019-06-15T21:06:56.251Z,16.00
2019-06-15T21:09:27.524Z,15.90
2019-06-15T21:11:56.682Z,15.90
2019-06-15T21:14:27.338Z,16.00
2019-06-15T21:16:57.024Z,15.90
2019-06-15T21:19:26.426Z,15.90
2019-06-15T21:21:56.697Z,15.90
2019-06-15T21:24:26.389Z,15.90
2019-06-15T21:26:56.391Z,15.90
2019-06-15T21:29:26.439Z,15.90
2019-06-15T21:31:56.931Z,15.90
2019-06-15T21:34:26.690Z,15.90
2019-06-15T21:36:56.692Z,15.90
2019-06-15T21:39:26.555Z,15.90
2019-06-15T21:41:56.902Z,15.90
2019-06-15T21:44:26.595Z,15.90
2019-06-15T21:46:56.363Z,16.00
2019-06-15T21:49:26.438Z,15.90
2019-06-15T21:51:56.520Z,16.00
2019-06-15T21:54:26.770Z,16.00
2019-06-15T21:56:56.510Z,16.00
2019-06-15T21:59:26.262Z,16.00
2019-06-15T22:01:55.647Z,16.00
2019-06-15T22:04:25.919Z,16.00
2019-06-15T22:06:56.406Z,16.00
2019-06-15T22:09:26.502Z,16.00
2019-06-15T22:11:56.231Z,16.00
2019-06-15T22:14:26.523Z,16.00
2019-06-15T22:16:56.874Z,16.00
2019-06-15T22:19:26.554Z,16.00
2019-06-15T22:21:55.950Z,16.00
2019-06-15T22:24:26.765Z,16.00
2019-06-15T22:26:56.495Z,16.00
2019-06-15T22:29:27.424Z,16.00
2019-06-15T22:31:56.912Z,16.00
2019-06-15T22:34:26.399Z,16.00
2019-06-15T22:36:57.110Z,16.00
2019-06-15T22:39:26.930Z,16.00
2019-06-15T22:41:56.602Z,16.00
2019-06-15T22:44:27.745Z,16.00
2019-06-15T22:46:57.259Z,16.00
2019-06-15T22:49:26.770Z,16.00
2019-06-15T22:51:56.877Z,16.00
2019-06-15T22:54:26.559Z,16.00
2019-06-15T22:56:56.603Z,16.00
2019-06-15T22:59:26.360Z,16.00
2019-06-15T23:01:57.536Z,16.00
2019-06-15T23:04:26.987Z,16.00
2019-06-15T23:06:56.620Z,15.90
2019-06-15T23:09:26.064Z,16.00
2019-06-15T23:11:56.561Z,16.00
2019-06-15T23:14:26.434Z,16.00
2019-06-15T23:16:56.730Z,15.90
2019-06-15T23:19:26.566Z,16.00
2019-06-15T23:21:57.226Z,16.00
2019-06-15T23:24:27.330Z,16.00
2019-06-15T23:26:57.208Z,16.00
2019-06-15T23:29:27.216Z,16.00
2019-06-15T23:31:57.216Z,16.00
2019-06-15T23:34:27.146Z,16.00
2019-06-15T23:37:00.870Z,16.00
2019-06-15T23:39:29.299Z,16.00
2019-06-15T23:41:58.691Z,16.00
2019-06-15T23:44:28.122Z,15.90
2019-06-15T23:47:01.815Z,15.90
2019-06-15T23:49:29.539Z,15.90
2019-06-15T23:51:59.006Z,15.90
2019-06-15T23:54:28.512Z,15.90
2019-06-15T23:56:57.915Z,15.90
2019-06-15T23:59:27.294Z,15.90
